Time;durP1;ratioP1;P1;durP2;ratioP2;P2;SDS_P1;SDS_P2;PMS_P1;PMS_P2;Temp;Humidity;BMP_temperature;BMP_pressure;BME280_temperature;BME280_humidity;BME280_pressure;Samples;Min_cycle;Max_cycle;Signal;HPM_P1;HPM_P2
2021/07/06 00:01:41;;;;;;;6.03;5.35;;;22.90;99.90;;;;;;5104311;28;20032;-73
2021/07/06 00:04:07;;;;;;;5.95;5.20;;;22.90;99.90;;;;;;5111502;27;20038;-75
2021/07/06 00:06:33;;;;;;;7.57;5.85;;;22.80;99.90;;;;;;5105958;28;20141;-75
2021/07/06 00:08:58;;;;;;;5.40;4.90;;;22.80;99.90;;;;;;5109169;28;20085;-75
2021/07/06 00:11:24;;;;;;;5.82;5.22;;;23.00;99.90;;;;;;5111989;28;20064;-75
2021/07/06 00:13:50;;;;;;;6.13;5.53;;;22.80;99.90;;;;;;5109425;28;20068;-74
2021/07/06 00:16:16;;;;;;;5.85;5.35;;;22.60;99.90;;;;;;5109737;28;20019;-74
2021/07/06 00:18:42;;;;;;;5.72;5.13;;;22.50;99.90;;;;;;5108921;28;20024;-73
2021/07/06 00:21:09;;;;;;;6.35;5.60;;;22.50;99.90;;;;;;5101309;28;20077;-74
2021/07/06 00:23:35;;;;;;;6.28;5.68;;;22.70;99.90;;;;;;5108056;28;20023;-73
2021/07/06 00:26:01;;;;;;;6.38;5.85;;;22.50;99.90;;;;;;5111274;28;20045;-75
2021/07/06 00:28:26;;;;;;;6.47;5.88;;;22.40;99.90;;;;;;5105345;28;20082;-74
2021/07/06 00:30:53;;;;;;;6.50;5.90;;;22.30;99.90;;;;;;5107043;28;20021;-74
2021/07/06 00:33:19;;;;;;;6.65;6.00;;;22.30;99.90;;;;;;5110195;28;20062;-74
2021/07/06 00:35:45;;;;;;;7.47;5.05;;;22.20;99.90;;;;;;5102100;28;20055;-74
2021/07/06 00:38:11;;;;;;;6.95;6.32;;;22.30;99.90;;;;;;5112286;28;20384;-74
2021/07/06 00:40:38;;;;;;;6.85;5.75;;;22.30;99.90;;;;;;5106400;28;20157;-74
2021/07/06 00:43:03;;;;;;;5.90;5.50;;;22.20;99.90;;;;;;5104219;28;20024;-74
2021/07/06 00:45:29;;;;;;;6.28;5.78;;;22.20;99.90;;;;;;5111997;28;20039;-75
2021/07/06 00:48:00;;;;;;;7.45;5.38;;;22.10;99.90;;;;;;5108643;28;20201;-74
2021/07/06 00:50:26;;;;;;;6.10;5.05;;;22.20;99.90;;;;;;5108336;28;20027;-74
2021/07/06 00:52:52;;;;;;;5.88;5.20;;;22.30;99.90;;;;;;5108187;28;20030;-75
2021/07/06 00:55:19;;;;;;;7.03;4.70;;;22.30;99.90;;;;;;5105478;28;20028;-74
2021/07/06 00:57:44;;;;;;;6.10;5.57;;;22.20;99.90;;;;;;5104753;27;20070;-73
2021/07/06 01:00:12;;;;;;;9.88;4.97;;;22.30;99.90;;;;;;5111461;27;20012;-75
2021/07/06 01:02:38;;;;;;;6.32;5.47;;;22.40;99.90;;;;;;5107810;28;20030;-75
2021/07/06 01:05:07;;;;;;;5.60;5.05;;;22.50;99.90;;;;;;5105295;28;20103;-75
2021/07/06 01:07:33;;;;;;;6.00;5.50;;;22.60;99.90;;;;;;5112306;28;20015;-73
2021/07/06 01:10:00;;;;;;;5.80;5.07;;;22.60;99.90;;;;;;5108315;28;20048;-73
2021/07/06 01:12:26;;;;;;;5.47;4.97;;;22.70;99.90;;;;;;5105117;28;20017;-73
2021/07/06 01:14:52;;;;;;;5.97;5.07;;;22.80;99.90;;;;;;5105660;28;20035;-73
2021/07/06 01:17:28;;;;;;;6.90;4.65;;;22.70;99.90;;;;;;5106042;27;20063;-74
2021/07/06 01:19:55;;;;;;;6.05;4.65;;;22.80;99.90;;;;;;5106193;28;20393;-74
2021/07/06 01:22:31;;;;;;;6.13;4.63;;;22.80;99.90;;;;;;5104662;27;20028;-74
2021/07/06 01:24:58;;;;;;;4.80;4.45;;;22.80;99.90;;;;;;5106942;28;20499;-74
2021/07/06 01:27:25;;;;;;;6.35;4.80;;;22.80;99.90;;;;;;5108758;28;20107;-74
2021/07/06 01:29:51;;;;;;;6.60;6.00;;;22.80;99.90;;;;;;5110402;28;20032;-73
2021/07/06 01:32:17;;;;;;;4.90;4.55;;;22.80;99.90;;;;;;5110517;27;20020;-74
2021/07/06 01:34:43;;;;;;;7.53;5.18;;;22.80;99.90;;;;;;5109930;28;20053;-74
2021/07/06 01:37:09;;;;;;;7.63;5.80;;;22.80;99.90;;;;;;5108356;28;20028;-75
2021/07/06 01:39:35;;;;;;;7.43;6.50;;;22.70;99.90;;;;;;5104092;28;20015;-75
2021/07/06 01:42:00;;;;;;;6.43;4.82;;;22.80;99.90;;;;;;5106432;28;20370;-74
2021/07/06 01:44:27;;;;;;;13.18;5.05;;;22.80;99.90;;;;;;5105746;28;20501;-74
2021/07/06 01:46:54;;;;;;;5.13;4.60;;;22.80;99.90;;;;;;5103946;28;20024;-74
2021/07/06 01:49:20;;;;;;;5.50;5.10;;;22.60;99.90;;;;;;5104701;28;20023;-74
2021/07/06 01:51:47;;;;;;;5.55;4.47;;;22.60;99.90;;;;;;5104708;28;20024;-74
2021/07/06 01:54:13;;;;;;;7.57;5.25;;;22.60;99.90;;;;;;5107560;28;20027;-74
2021/07/06 01:56:41;;;;;;;5.38;4.97;;;22.40;99.90;;;;;;5107980;28;20501;-74
2021/07/06 01:59:07;;;;;;;8.13;4.82;;;22.50;99.90;;;;;;5109020;28;20043;-74
2021/07/06 02:01:35;;;;;;;6.57;5.13;;;22.50;99.90;;;;;;5106474;28;20031;-73
2021/07/06 02:04:01;;;;;;;5.53;5.03;;;22.40;99.90;;;;;;5107754;28;20034;-73
2021/07/06 02:06:27;;;;;;;5.22;4.72;;;22.40;99.90;;;;;;5107387;28;20495;-74
2021/07/06 02:08:53;;;;;;;5.22;4.82;;;22.40;99.90;;;;;;5106967;28;20023;-74
2021/07/06 02:11:19;;;;;;;5.53;4.75;;;22.30;99.90;;;;;;5106884;28;20028;-74
2021/07/06 02:13:45;;;;;;;5.13;4.68;;;22.20;99.90;;;;;;5108185;28;20096;-74
2021/07/06 02:16:11;;;;;;;5.32;4.85;;;22.20;99.90;;;;;;5109018;28;20024;-73
2021/07/06 02:18:38;;;;;;;5.25;4.95;;;22.10;99.90;;;;;;5108394;28;20040;-74
2021/07/06 02:21:04;;;;;;;5.43;4.72;;;22.00;99.90;;;;;;5102883;28;20489;-74
2021/07/06 02:23:31;;;;;;;8.88;4.75;;;22.00;99.90;;;;;;5110563;28;20062;-74
2021/07/06 02:26:04;;;;;;;5.30;4.80;;;22.10;99.90;;;;;;5108346;28;20404;-74
2021/07/06 02:28:30;;;;;;;5.38;4.97;;;22.10;99.90;;;;;;5109630;28;20050;-73
2021/07/06 02:30:57;;;;;;;7.35;5.32;;;22.10;99.90;;;;;;5108332;28;20031;-73
2021/07/06 02:33:23;;;;;;;5.15;4.40;;;22.20;99.90;;;;;;5104137;28;20059;-74
2021/07/06 02:35:49;;;;;;;5.72;5.22;;;22.30;99.90;;;;;;5105137;28;20067;-74
2021/07/06 02:38:15;;;;;;;7.25;4.72;;;22.50;99.90;;;;;;5110345;28;20036;-74
2021/07/06 02:40:41;;;;;;;5.07;4.50;;;22.30;99.90;;;;;;5104642;28;20475;-74
2021/07/06 02:43:07;;;;;;;4.43;4.10;;;22.10;99.90;;;;;;5104922;28;20047;-73
2021/07/06 02:45:34;;;;;;;9.23;5.88;;;22.10;99.90;;;;;;5104081;28;20016;-74
2021/07/06 02:48:00;;;;;;;4.95;4.15;;;22.20;99.90;;;;;;5100065;28;20043;-73
2021/07/06 02:50:26;;;;;;;6.20;5.60;;;22.10;99.90;;;;;;5109104;28;20019;-73
2021/07/06 02:52:53;;;;;;;5.50;5.03;;;22.20;99.90;;;;;;5106415;28;20035;-73
2021/07/06 02:55:20;;;;;;;10.60;4.88;;;22.30;99.90;;;;;;5108128;28;20111;-74
2021/07/06 02:57:46;;;;;;;5.70;5.20;;;22.30;99.90;;;;;;5104232;28;20028;-74
2021/07/06 03:00:29;;;;;;;5.07;4.68;;;22.10;99.90;;;;;;5101907;28;20615;-73
2021/07/06 03:03:07;;;;;;;5.05;4.32;;;22.00;99.90;;;;;;5101139;28;20020;-73
2021/07/06 03:05:33;;;;;;;6.75;5.15;;;22.10;99.90;;;;;;5107650;28;20028;-74
2021/07/06 03:08:00;;;;;;;6.13;5.07;;;22.10;99.90;;;;;;5109827;28;20504;-74
2021/07/06 03:10:32;;;;;;;6.18;4.72;;;22.20;99.90;;;;;;5106047;28;20380;-73
2021/07/06 03:12:58;;;;;;;5.00;4.65;;;22.10;99.90;;;;;;5109119;28;20024;-73
2021/07/06 03:15:27;;;;;;;6.72;4.97;;;22.20;99.90;;;;;;5103572;28;20102;-74
2021/07/06 03:17:54;;;;;;;6.57;5.78;;;22.10;99.90;;;;;;5106102;28;20036;-73
2021/07/06 03:20:22;;;;;;;5.13;4.63;;;22.10;99.90;;;;;;5096856;28;20065;-73
2021/07/06 03:22:48;;;;;;;4.78;4.38;;;22.10;99.90;;;;;;5107698;28;20024;-73
2021/07/06 03:25:16;;;;;;;5.93;5.00;;;22.10;99.90;;;;;;5110180;28;20027;-72
2021/07/06 03:27:42;;;;;;;5.07;4.68;;;22.20;99.90;;;;;;5105367;28;20095;-74
2021/07/06 03:30:11;;;;;;;6.20;5.03;;;22.20;99.90;;;;;;5108332;28;20034;-72
2021/07/06 03:32:37;;;;;;;5.47;4.95;;;22.20;99.90;;;;;;5096984;28;20482;-72
2021/07/06 03:35:05;;;;;;;10.05;4.28;;;22.20;99.90;;;;;;5112118;28;20039;-72
2021/07/06 03:37:31;;;;;;;5.70;5.15;;;22.20;99.90;;;;;;5113866;28;20034;-72
2021/07/06 03:39:56;;;;;;;7.28;4.80;;;22.20;99.90;;;;;;5111429;28;20028;-72
2021/07/06 03:42:22;;;;;;;6.20;5.18;;;22.20;99.90;;;;;;5104991;28;20047;-72
2021/07/06 03:44:48;;;;;;;4.47;4.18;;;22.10;99.90;;;;;;5111592;28;20046;-71
2021/07/06 03:47:13;;;;;;;9.15;4.85;;;22.10;99.90;;;;;;5105658;28;20030;-72
2021/07/06 03:49:39;;;;;;;4.93;4.53;;;22.10;99.90;;;;;;5103332;28;20026;-72
2021/07/06 03:52:05;;;;;;;11.13;5.03;;;22.20;99.90;;;;;;5110114;28;20039;-72
2021/07/06 03:54:31;;;;;;;4.45;3.90;;;22.10;99.90;;;;;;5109769;28;20030;-72
2021/07/06 03:56:57;;;;;;;6.20;4.55;;;22.20;99.90;;;;;;5101780;28;20044;-72
2021/07/06 03:59:23;;;;;;;9.13;4.68;;;22.20;99.90;;;;;;5104087;28;20047;-71
2021/07/06 04:01:52;;;;;;;5.63;4.90;;;22.30;99.90;;;;;;5111339;28;20708;-72
2021/07/06 04:04:19;;;;;;;4.72;4.32;;;22.40;99.90;;;;;;5110978;28;20080;-72
2021/07/06 04:06:45;;;;;;;5.60;4.53;;;22.40;99.90;;;;;;5112971;28;20016;-71
2021/07/06 04:09:10;;;;;;;5.25;4.72;;;22.40;99.90;;;;;;5112201;28;20601;-72
2021/07/06 04:11:36;;;;;;;5.35;4.97;;;22.50;99.90;;;;;;5112408;28;20030;-71
2021/07/06 04:14:03;;;;;;;10.48;4.70;;;22.60;99.90;;;;;;5112029;28;20023;-72
2021/07/06 04:16:29;;;;;;;7.30;4.35;;;22.60;99.90;;;;;;5106390;28;20093;-73
2021/07/06 04:18:55;;;;;;;6.57;5.03;;;22.60;99.90;;;;;;5109717;28;20378;-73
2021/07/06 04:21:21;;;;;;;5.57;5.07;;;22.70;99.90;;;;;;5110242;28;20033;-72
2021/07/06 04:23:46;;;;;;;7.32;4.70;;;22.70;99.90;;;;;;5113016;28;20027;-71
2021/07/06 04:26:12;;;;;;;4.95;4.20;;;22.70;99.90;;;;;;5109384;28;20015;-72
2021/07/06 04:28:38;;;;;;;4.22;3.92;;;22.80;99.90;;;;;;5110990;28;20397;-71
2021/07/06 04:31:04;;;;;;;6.68;4.75;;;22.80;99.90;;;;;;5104581;28;20043;-71
2021/07/06 04:33:31;;;;;;;4.03;3.72;;;22.70;99.90;;;;;;5106761;28;20024;-72
2021/07/06 04:35:57;;;;;;;4.53;4.00;;;22.90;99.90;;;;;;5108608;28;20081;-72
2021/07/06 04:38:23;;;;;;;4.13;3.83;;;22.90;99.90;;;;;;5112745;28;20481;-71
2021/07/06 04:40:49;;;;;;;5.25;4.60;;;22.80;99.90;;;;;;5109544;28;20034;-71
2021/07/06 04:43:15;;;;;;;5.78;4.18;;;22.60;99.90;;;;;;5112053;28;20023;-72
2021/07/06 04:45:41;;;;;;;4.07;3.78;;;22.60;99.90;;;;;;5108739;28;20137;-72
2021/07/06 04:48:07;;;;;;;4.82;4.43;;;22.60;99.90;;;;;;5110862;28;20037;-72
2021/07/06 04:50:36;;;;;;;6.32;4.60;;;22.80;99.90;;;;;;5109364;28;20049;-72
2021/07/06 04:53:03;;;;;;;4.97;4.53;;;22.90;99.90;;;;;;5112819;28;20098;-72
2021/07/06 04:55:29;;;;;;;4.22;3.83;;;22.90;99.90;;;;;;5106359;28;20028;-73
2021/07/06 04:57:55;;;;;;;4.47;3.65;;;22.90;99.90;;;;;;5108250;28;20096;-73
2021/07/06 05:00:20;;;;;;;9.63;4.60;;;23.00;99.90;;;;;;5111675;27;20023;-72
2021/07/06 05:02:47;;;;;;;4.30;3.90;;;23.00;99.90;;;;;;5109134;28;20382;-72
2021/07/06 05:05:13;;;;;;;4.80;3.80;;;23.10;99.90;;;;;;5109805;28;20020;-72
2021/07/06 05:07:39;;;;;;;4.72;4.40;;;23.00;99.90;;;;;;5112741;28;20476;-74
2021/07/06 05:10:10;;;;;;;8.35;6.30;;;23.10;99.90;;;;;;5109885;28;20035;-74
2021/07/06 05:12:36;;;;;;;6.93;5.93;;;23.30;99.90;;;;;;5112896;28;20020;-72
2021/07/06 05:15:05;;;;;;;5.60;5.05;;;23.30;99.90;;;;;;5108167;28;20166;-71
2021/07/06 05:17:31;;;;;;;6.07;4.97;;;23.40;99.90;;;;;;5108916;28;20150;-73
2021/07/06 05:19:57;;;;;;;4.43;4.03;;;23.60;99.90;;;;;;5103996;28;20125;-71
2021/07/06 05:22:23;;;;;;;6.72;5.53;;;23.60;99.90;;;;;;5111998;28;20031;-72
2021/07/06 05:24:50;;;;;;;4.88;4.05;;;23.70;99.90;;;;;;5112291;27;20089;-72
2021/07/06 05:27:16;;;;;;;6.85;4.18;;;23.80;99.90;;;;;;5111977;28;20048;-71
2021/07/06 05:29:42;;;;;;;9.10;3.92;;;23.90;99.90;;;;;;5109071;28;20049;-72
2021/07/06 05:32:08;;;;;;;9.90;4.32;;;24.10;99.90;;;;;;5107861;28;20034;-72
2021/07/06 05:34:33;;;;;;;5.50;5.00;;;24.20;99.90;;;;;;5107425;28;20035;-71
2021/07/06 05:36:59;;;;;;;7.95;6.82;;;24.20;99.90;;;;;;5111424;28;20107;-71
2021/07/06 05:39:26;;;;;;;9.93;5.10;;;24.40;99.90;;;;;;5108871;28;20024;-72
2021/07/06 05:41:52;;;;;;;8.23;5.22;;;24.30;99.90;;;;;;5105696;28;20073;-72
2021/07/06 05:44:18;;;;;;;6.03;3.92;;;24.40;99.90;;;;;;5112354;28;20027;-72
2021/07/06 05:46:44;;;;;;;4.25;3.95;;;24.30;99.90;;;;;;5104171;28;20028;-72
2021/07/06 05:49:10;;;;;;;6.50;4.43;;;24.30;99.90;;;;;;5109931;28;20072;-72
2021/07/06 05:51:36;;;;;;;4.47;4.07;;;24.30;99.90;;;;;;5112512;28;20028;-72
2021/07/06 05:54:03;;;;;;;6.50;5.95;;;24.40;99.90;;;;;;5113717;28;20053;-72
2021/07/06 05:56:30;;;;;;;5.28;4.85;;;24.40;99.90;;;;;;5103628;28;20045;-72
2021/07/06 05:58:56;;;;;;;5.38;4.97;;;24.50;99.90;;;;;;5110423;28;20028;-72
2021/07/06 06:01:22;;;;;;;4.72;4.32;;;24.60;99.90;;;;;;5104390;28;20108;-72
2021/07/06 06:03:48;;;;;;;4.55;3.83;;;24.80;99.90;;;;;;5108299;28;20603;-71
2021/07/06 06:06:13;;;;;;;4.43;4.03;;;24.80;99.90;;;;;;5110936;28;20028;-72
2021/07/06 06:08:41;;;;;;;4.55;3.50;;;24.90;99.90;;;;;;5107033;27;20081;-72
2021/07/06 06:11:08;;;;;;;9.10;3.95;;;24.90;99.90;;;;;;5111015;28;20011;-72
2021/07/06 06:13:33;;;;;;;7.35;4.57;;;25.00;99.90;;;;;;5103933;28;20076;-71
2021/07/06 06:15:59;;;;;;;5.15;4.70;;;25.00;99.90;;;;;;5109647;28;20036;-72
2021/07/06 06:18:26;;;;;;;6.28;4.50;;;25.00;99.90;;;;;;5110763;28;20035;-72
2021/07/06 06:20:52;;;;;;;9.35;4.32;;;25.10;99.90;;;;;;5104366;28;20028;-72
2021/07/06 06:23:17;;;;;;;3.75;3.45;;;25.20;99.90;;;;;;5110606;28;20043;-72
2021/07/06 06:25:43;;;;;;;5.35;3.65;;;25.30;99.90;;;;;;5107594;28;20016;-72
2021/07/06 06:28:09;;;;;;;5.28;4.80;;;25.30;99.90;;;;;;5108619;28;20461;-72
2021/07/06 06:30:34;;;;;;;5.75;3.88;;;25.40;99.90;;;;;;5100270;28;20594;-67
2021/07/06 06:33:00;;;;;;;5.05;4.15;;;25.40;99.90;;;;;;5110622;28;20019;-67
2021/07/06 06:35:26;;;;;;;7.65;4.38;;;25.50;99.90;;;;;;5098975;28;20099;-68
2021/07/06 06:37:52;;;;;;;8.35;4.50;;;25.50;99.90;;;;;;5109624;28;20385;-70
2021/07/06 06:40:18;;;;;;;11.05;5.30;;;25.50;99.90;;;;;;5108417;28;20081;-72
2021/07/06 06:42:44;;;;;;;9.77;5.25;;;25.50;99.90;;;;;;5110336;28;20028;-70
2021/07/06 06:45:11;;;;;;;7.95;5.22;;;25.50;99.90;;;;;;5106233;28;20393;-72
2021/07/06 06:47:38;;;;;;;15.52;5.85;;;25.40;99.90;;;;;;5105485;28;20031;-70
2021/07/06 06:50:05;;;;;;;5.95;5.32;;;25.40;99.90;;;;;;5104523;28;20024;-69
2021/07/06 06:52:31;;;;;;;9.07;4.88;;;25.40;99.90;;;;;;5104624;28;20533;-70
2021/07/06 06:54:57;;;;;;;16.48;5.60;;;25.50;99.90;;;;;;5107920;28;20032;-70
2021/07/06 06:57:26;;;;;;;8.57;5.38;;;25.40;99.90;;;;;;5109815;28;20057;-72
2021/07/06 06:59:52;;;;;;;6.50;5.05;;;25.30;99.90;;;;;;5107959;28;20110;-71
2021/07/06 07:02:20;;;;;;;6.15;5.55;;;25.30;99.90;;;;;;5104061;28;20114;-70
2021/07/06 07:04:51;;;;;;;7.65;5.55;;;25.30;99.90;;;;;;5109193;28;20052;-71
2021/07/06 07:07:19;;;;;;;10.38;5.40;;;25.30;99.90;;;;;;5105720;28;20023;-71
2021/07/06 07:09:45;;;;;;;6.15;4.85;;;25.30;99.90;;;;;;5110934;28;20020;-71
2021/07/06 07:12:17;;;;;;;7.22;4.90;;;25.40;99.90;;;;;;5113624;28;20031;-71
2021/07/06 07:14:44;;;;;;;11.10;4.40;;;25.30;99.90;;;;;;5113087;28;20106;-69
2021/07/06 07:17:11;;;;;;;5.65;5.00;;;25.20;99.90;;;;;;5110491;28;20024;-71
2021/07/06 07:19:46;;;;;;;5.63;5.13;;;25.30;99.90;;;;;;5110791;28;20035;-71
2021/07/06 07:22:13;;;;;;;6.20;5.70;;;25.20;99.90;;;;;;5110525;28;20020;-70
2021/07/06 07:24:39;;;;;;;9.73;4.90;;;25.20;99.90;;;;;;5113180;28;20493;-72
2021/07/06 07:27:06;;;;;;;8.77;5.93;;;25.30;99.90;;;;;;5114077;28;20031;-74
2021/07/06 07:29:33;;;;;;;10.65;4.70;;;25.30;99.90;;;;;;5115817;28;20016;-74
2021/07/06 07:31:59;;;;;;;6.43;5.40;;;25.40;99.90;;;;;;5112802;28;20020;-71
2021/07/06 07:34:31;;;;;;;9.73;5.82;;;25.50;99.90;;;;;;5111820;28;20027;-71
2021/07/06 07:36:57;;;;;;;17.52;5.47;;;25.60;99.90;;;;;;5109630;28;20023;-71
2021/07/06 07:39:24;;;;;;;6.00;5.47;;;25.70;99.90;;;;;;5105824;27;20030;-71
2021/07/06 07:41:49;;;;;;;8.18;5.70;;;25.60;99.90;;;;;;5106230;28;20027;-72
2021/07/06 07:44:15;;;;;;;11.55;6.53;;;25.60;99.90;;;;;;5113301;28;20020;-70
2021/07/06 07:46:41;;;;;;;6.70;5.43;;;25.70;99.90;;;;;;5110406;28;20057;-70
2021/07/06 07:49:07;;;;;;;6.82;4.78;;;25.70;99.90;;;;;;5099699;28;20031;-71
2021/07/06 07:51:33;;;;;;;10.55;5.30;;;25.70;99.90;;;;;;5112984;28;20383;-70
2021/07/06 07:53:59;;;;;;;19.85;6.65;;;25.70;99.90;;;;;;5108629;28;20096;-71
2021/07/06 07:56:24;;;;;;;12.82;5.65;;;25.70;99.90;;;;;;5108282;28;20031;-72
2021/07/06 07:58:50;;;;;;;8.57;4.85;;;25.70;99.90;;;;;;5108591;28;20028;-71
2021/07/06 08:01:16;;;;;;;10.45;5.30;;;25.80;99.90;;;;;;5107403;28;20062;-72
2021/07/06 08:03:42;;;;;;;11.32;5.72;;;25.90;99.90;;;;;;5102928;28;20027;-70
2021/07/06 08:06:07;;;;;;;9.27;5.05;;;26.00;99.90;;;;;;5111485;28;20058;-71
2021/07/06 08:08:33;;;;;;;7.07;5.32;;;26.10;99.90;;;;;;5106830;27;20020;-70
2021/07/06 08:11:00;;;;;;;12.45;6.10;;;26.20;99.90;;;;;;5106515;28;20031;-70
2021/07/06 08:13:26;;;;;;;5.13;4.75;;;26.20;99.90;;;;;;5109750;28;20023;-71
2021/07/06 08:15:53;;;;;;;7.88;5.07;;;26.10;99.90;;;;;;5105163;28;20027;-71
2021/07/06 08:18:19;;;;;;;9.80;6.32;;;26.20;99.90;;;;;;5110653;28;20035;-71
2021/07/06 08:20:46;;;;;;;10.73;6.20;;;26.20;99.90;;;;;;5113614;28;20404;-71
2021/07/06 08:23:12;;;;;;;10.50;5.72;;;26.10;99.90;;;;;;5113144;28;20054;-72
2021/07/06 08:25:38;;;;;;;10.85;5.97;;;26.10;99.90;;;;;;5108150;28;20499;-72
2021/07/06 08:28:04;;;;;;;15.93;6.40;;;26.10;99.90;;;;;;5110017;28;20030;-71
2021/07/06 08:30:30;;;;;;;14.43;5.30;;;26.20;99.90;;;;;;5112520;28;20032;-72
2021/07/06 08:32:56;;;;;;;9.07;5.55;;;26.20;99.90;;;;;;5099743;27;20034;-73
2021/07/06 08:35:21;;;;;;;5.60;5.13;;;26.30;99.90;;;;;;5096936;28;20039;-73
2021/07/06 08:37:47;;;;;;;5.10;4.63;;;26.30;99.90;;;;;;5103416;28;20054;-74
2021/07/06 08:40:14;;;;;;;16.05;5.05;;;26.40;99.90;;;;;;5109924;28;20016;-72
2021/07/06 08:42:41;;;;;;;8.05;5.85;;;26.40;99.90;;;;;;5110923;28;20034;-72
2021/07/06 08:45:08;;;;;;;5.88;5.38;;;26.50;99.90;;;;;;5106004;28;20063;-70
2021/07/06 08:47:34;;;;;;;5.40;5.00;;;26.50;99.90;;;;;;5109886;28;20046;-73
2021/07/06 08:50:03;;;;;;;12.20;5.00;;;26.30;99.90;;;;;;5109491;28;20345;-73
2021/07/06 08:52:30;;;;;;;5.40;4.90;;;26.30;99.90;;;;;;5109012;28;20032;-73
2021/07/06 08:54:56;;;;;;;6.40;5.90;;;26.30;99.90;;;;;;5111902;28;20084;-73
2021/07/06 08:57:22;;;;;;;4.88;4.38;;;26.40;99.90;;;;;;5110147;28;20028;-74
2021/07/06 08:59:49;;;;;;;4.93;4.18;;;26.40;99.90;;;;;;5111642;28;20085;-74
2021/07/06 09:02:20;;;;;;;7.65;3.85;;;26.30;99.90;;;;;;5103327;28;20489;-76
2021/07/06 09:04:51;;;;;;;6.35;3.88;;;26.40;99.90;;;;;;5109428;28;20031;-77
2021/07/06 09:07:21;;;;;;;5.15;3.47;;;26.50;99.90;;;;;;5108017;28;20027;-78
2021/07/06 09:09:51;;;;;;;12.65;4.90;;;26.50;99.90;;;;;;5099592;28;20028;-77
2021/07/06 09:12:19;;;;;;;5.85;5.35;;;26.50;99.90;;;;;;5108536;28;20473;-77
2021/07/06 09:14:49;;;;;;;8.73;5.22;;;26.60;99.90;;;;;;5108307;28;20023;-77
2021/07/06 09:17:18;;;;;;;6.85;5.18;;;26.40;99.90;;;;;;5103528;28;20100;-77
2021/07/06 09:19:49;;;;;;;7.38;4.05;;;26.40;99.90;;;;;;5105834;28;20120;-71
2021/07/06 09:22:20;;;;;;;8.32;5.60;;;26.30;99.90;;;;;;5106957;28;20038;-74
2021/07/06 09:24:48;;;;;;;12.25;6.93;;;26.40;99.90;;;;;;5109076;28;20054;-72
2021/07/06 09:27:20;;;;;;;8.35;7.18;;;26.50;99.90;;;;;;5108491;28;20051;-75
2021/07/06 09:30:24;;;;;;;11.80;4.97;;;26.50;99.90;;;;;;5107352;28;20022;-71
2021/07/06 09:32:52;;;;;;;6.40;5.93;;;26.60;99.90;;;;;;5055637;28;20028;-72
2021/07/06 09:35:28;;;;;;;6.50;5.40;;;26.50;99.90;;;;;;5094017;28;20036;-73
2021/07/06 09:37:57;;;;;;;7.10;6.50;;;26.40;99.90;;;;;;5101028;28;20024;-71
2021/07/06 09:40:30;;;;;;;9.73;6.80;;;26.40;99.90;;;;;;5095273;28;20104;-75
2021/07/06 09:43:15;;;;;;;8.15;6.43;;;26.50;99.90;;;;;;5109149;28;20024;-72
2021/07/06 09:45:45;;;;;;;8.20;5.97;;;26.50;99.90;;;;;;5100704;28;20485;-72
2021/07/06 09:48:11;;;;;;;6.07;5.57;;;26.50;99.90;;;;;;5098053;27;20047;-74
2021/07/06 09:50:37;;;;;;;6.20;5.60;;;26.50;99.90;;;;;;5095368;28;20424;-74
2021/07/06 09:53:03;;;;;;;9.57;7.72;;;26.50;99.90;;;;;;5101398;28;20688;-71
2021/07/06 09:55:32;;;;;;;10.45;6.25;;;26.60;99.90;;;;;;5106593;28;20158;-72
2021/07/06 09:58:04;;;;;;;6.47;5.90;;;26.70;99.90;;;;;;5108506;28;20024;-72
2021/07/06 10:00:32;;;;;;;;;;;26.70;99.90;;;;;;5099455;28;20076;-72
2021/07/06 10:03:01;;;;;;;5.85;5.38;;;26.70;99.90;;;;;;5095108;28;19994;-73
2021/07/06 10:05:28;;;;;;;10.55;5.45;;;26.70;99.90;;;;;;5104963;28;20019;-70
2021/07/06 10:07:55;;;;;;;7.57;5.60;;;26.90;99.90;;;;;;5107434;28;20038;-74
2021/07/06 10:10:22;;;;;;;5.53;5.03;;;26.90;99.90;;;;;;5106626;28;20063;-71
2021/07/06 10:12:49;;;;;;;6.28;4.78;;;26.80;99.90;;;;;;5102492;27;20047;-71
2021/07/06 10:15:18;;;;;;;4.55;4.18;;;26.80;99.90;;;;;;5101861;28;20028;-68
2021/07/06 10:17:45;;;;;;;5.32;4.65;;;26.90;99.90;;;;;;5101154;28;20027;-73
2021/07/06 10:20:19;;;;;;;5.40;4.57;;;27.00;99.90;;;;;;5103340;28;20020;-71
2021/07/06 10:22:44;;;;;;;4.82;4.47;;;27.00;99.90;;;;;;5108758;28;20028;-70
2021/07/06 10:25:11;;;;;;;4.72;4.30;;;27.10;99.90;;;;;;5109348;28;20396;-71
2021/07/06 10:27:40;;;;;;;15.48;5.47;;;27.20;99.90;;;;;;5101917;28;20434;-72
2021/07/06 10:30:16;;;;;;;5.90;4.25;;;27.30;99.90;;;;;;5105776;28;20023;-72
2021/07/06 10:32:44;;;;;;;6.28;4.07;;;27.40;99.90;;;;;;5104935;28;20048;-74
2021/07/06 10:35:12;;;;;;;7.47;3.83;;;27.60;99.90;;;;;;5110625;28;20020;-73
2021/07/06 10:37:39;;;;;;;4.40;4.00;;;27.70;99.90;;;;;;5111149;28;20053;-73
2021/07/06 10:40:13;;;;;;;4.35;3.60;;;27.90;99.90;;;;;;5108455;28;20070;-76
2021/07/06 10:42:40;;;;;;;12.00;4.75;;;28.00;99.90;;;;;;5106770;28;20061;-74
2021/07/06 10:45:20;;;;;;;6.65;3.75;;;28.10;99.90;;;;;;5114045;28;20341;-72
2021/07/06 10:47:48;;;;;;;5.85;4.13;;;28.20;99.90;;;;;;5103977;28;20065;-73
2021/07/06 10:50:30;;;;;;;4.45;4.05;;;28.20;99.90;;;;;;5108572;28;20051;-78
2021/07/06 10:53:14;;;;;;;4.82;3.95;;;28.10;99.90;;;;;;5110298;28;20035;-74
2021/07/06 10:55:41;;;;;;;9.00;4.55;;;28.10;99.90;;;;;;5111180;28;20393;-76
2021/07/06 10:58:07;;;;;;;4.53;3.45;;;28.20;99.90;;;;;;5115583;28;20041;-77
2021/07/06 11:00:41;;;;;;;8.18;4.13;;;28.30;99.90;;;;;;5115414;28;20027;-77
2021/07/06 11:03:14;;;;;;;9.30;3.67;;;28.30;99.90;;;;;;5107417;28;20123;-75
2021/07/06 11:05:41;;;;;;;4.55;4.25;;;28.20;99.90;;;;;;5107667;28;20020;-71
2021/07/06 11:08:07;;;;;;;4.35;3.72;;;28.10;99.90;;;;;;5114698;28;20042;-68
2021/07/06 11:10:36;;;;;;;8.35;4.32;;;28.20;99.90;;;;;;5106049;28;20430;-69
2021/07/06 11:13:16;;;;;;;7.65;4.20;;;28.20;99.90;;;;;;5111399;28;20112;-69
2021/07/06 11:15:42;;;;;;;6.32;3.83;;;28.30;99.90;;;;;;5103720;28;20016;-67
2021/07/06 11:18:10;;;;;;;6.88;3.92;;;28.00;99.90;;;;;;5101795;28;20057;-70
2021/07/06 11:20:35;;;;;;;4.65;3.65;;;28.00;99.90;;;;;;5100204;28;20812;-68
2021/07/06 11:23:03;;;;;;;4.90;3.85;;;28.00;99.90;;;;;;5103122;27;20028;-69
2021/07/06 11:25:35;;;;;;;4.55;3.80;;;28.10;99.90;;;;;;5101568;28;20052;-69
2021/07/06 11:28:04;;;;;;;;;;;28.10;99.90;;;;;;5100018;28;20032;-70
2021/07/06 11:30:35;;;;;;;5.20;3.55;;;28.20;99.90;;;;;;5101756;27;19923;-68
2021/07/06 11:33:16;;;;;;;9.63;4.05;;;28.10;99.90;;;;;;5104663;28;20032;-68
2021/07/06 11:35:46;;;;;;;6.18;4.70;;;28.20;99.90;;;;;;5105575;28;20028;-68
2021/07/06 11:38:19;;;;;;;13.30;4.75;;;28.30;99.90;;;;;;5104354;27;20035;-68
2021/07/06 11:40:47;;;;;;;4.35;3.95;;;28.20;99.90;;;;;;5105709;28;20478;-68
2021/07/06 11:43:15;;;;;;;7.10;4.50;;;28.30;99.90;;;;;;5097481;28;20043;-69
2021/07/06 11:45:46;;;;;;;5.43;3.95;;;28.30;99.90;;;;;;5099390;28;20092;-67
2021/07/06 11:48:18;;;;;;;5.13;4.17;;;28.30;99.90;;;;;;5101297;28;20016;-70
2021/07/06 11:50:46;;;;;;;6.93;3.58;;;28.30;99.90;;;;;;5100999;28;20344;-68
2021/07/06 11:53:12;;;;;;;4.60;3.10;;;28.40;99.90;;;;;;5100023;28;20020;-68
2021/07/06 11:55:40;;;;;;;6.75;4.05;;;28.50;99.90;;;;;;5101430;28;20020;-70
2021/07/06 11:58:08;;;;;;;3.63;3.38;;;28.60;99.90;;;;;;5099786;28;20078;-68
2021/07/06 12:00:36;;;;;;;3.33;3.13;;;28.80;99.90;;;;;;5099219;28;20115;-67
2021/07/06 12:03:16;;;;;;;5.20;3.00;;;28.90;99.90;;;;;;5102711;28;20016;-67
2021/07/06 12:05:43;;;;;;;5.90;2.92;;;29.00;99.90;;;;;;5096841;28;20020;-67
2021/07/06 12:08:20;;;;;;;3.90;2.97;;;29.10;99.90;;;;;;5095992;28;20024;-71
2021/07/06 12:11:05;;;;;;;6.15;3.50;;;29.10;99.90;;;;;;5104042;28;20024;-67
2021/07/06 12:13:36;;;;;;;3.15;2.95;;;28.90;99.90;;;;;;5112653;28;20469;-66
2021/07/06 12:16:06;;;;;;;4.13;2.83;;;28.80;99.90;;;;;;5107071;27;20030;-67
2021/07/06 12:18:34;;;;;;;5.47;3.58;;;28.80;99.90;;;;;;5099345;28;20027;-67
2021/07/06 12:21:06;;;;;;;5.38;4.28;;;28.70;99.90;;;;;;5107525;27;20111;-68
2021/07/06 12:23:36;;;;;;;4.15;3.60;;;28.60;99.90;;;;;;5109650;28;20041;-66
2021/07/06 12:26:04;;;;;;;8.10;3.58;;;28.60;99.90;;;;;;5095015;27;20031;-67
2021/07/06 12:28:31;;;;;;;7.25;4.28;;;28.70;99.90;;;;;;5103309;28;20024;-67
2021/07/06 12:31:29;;;;;;;4.70;3.33;;;28.60;99.90;;;;;;5110503;28;20443;-68
2021/07/06 12:34:10;;;;;;;4.63;3.30;;;28.70;99.90;;;;;;5097275;28;20525;-68
2021/07/06 12:36:40;;;;;;;4.25;3.42;;;28.80;99.90;;;;;;5106849;28;20020;-68
2021/07/06 12:39:12;;;;;;;3.78;2.60;;;28.90;99.90;;;;;;5108689;28;20138;-68
2021/07/06 12:41:43;;;;;;;4.38;3.97;;;28.80;99.90;;;;;;5107912;28;20062;-67
2021/07/06 12:44:09;;;;;;;3.67;3.33;;;28.90;99.90;;;;;;5099587;28;20453;-67
2021/07/06 12:46:35;;;;;;;4.03;3.17;;;28.90;99.90;;;;;;5106797;28;20030;-67
2021/07/06 12:49:01;;;;;;;5.30;3.55;;;28.90;99.90;;;;;;5110129;28;20027;-67